Weather at Camp Humphreys (A-511) Airfield

Public forecast

Using degrees Celsius for public forecast. Weather courtesy of forecast.io.

Current aviation weather report (METAR) for Camp Humphreys (A-511) Airfield

2022/12/02 22:55 (retrieved 12 minutes ago)

RKSG 022255Z 34005KT 10SM SCT024 SCT030 BKN042 OVC050 02/01 A3025 RMK AO2A DZB17E55 SLP248 P0000 T00230007

Aviation forecast (TAF) for Camp Humphreys (A-511) Airfield

2022/12/02 19:03 (retrieved 4 hours ago)

TAF TAF RKSG 021900Z 0219/0401 VRB06KT 9999 BKN026 OVC040 510063 QNH3029INS BECMG 0300/0301 VRB06KT 9000 -SHRA FEW019 SCT026 OVC040 510053 QNH3024INS BECMG 0305/0306 VRB06KT 9999 NSW FEW019 BKN026 OVC040 510063 QNH3026INS BECMG 0314/0315 33009KT 9999 SCT020 SCT027 BKN080 510063 QNH3036INS BECMG 0317/0318 33015G20KT 9999 FEW220 510073 QNH3044INS TX07/0306Z TNM02/0223Z